createdAt,value
2022-08-30T00:02:37.113Z,15.67
2022-08-30T00:05:40.134Z,15.75
2022-08-30T00:08:43.928Z,15.71
2022-08-30T00:11:48.171Z,15.79
2022-08-30T00:14:51.008Z,15.81
2022-08-30T00:17:54.208Z,15.74
2022-08-30T00:20:57.215Z,15.69
2022-08-30T00:24:00.144Z,15.61
2022-08-30T00:27:04.407Z,15.69
2022-08-30T00:30:08.036Z,15.58
2022-08-30T00:33:11.600Z,15.46
2022-08-30T00:36:14.487Z,15.41
2022-08-30T00:39:17.333Z,16.01
2022-08-30T00:42:22.236Z,16.45
2022-08-30T00:45:27.142Z,16.64
2022-08-30T00:48:30.568Z,16.77
2022-08-30T00:51:33.538Z,17.02
2022-08-30T00:54:37.316Z,16.87
2022-08-30T00:57:41.568Z,17.15
2022-08-30T01:00:44.954Z,16.98
2022-08-30T01:03:48.918Z,17.21
2022-08-30T01:06:52.467Z,17.24
2022-08-30T01:09:55.394Z,17.18
2022-08-30T01:12:59.562Z,17.30
2022-08-30T01:16:03.010Z,17.27
2022-08-30T01:19:07.886Z,17.29
2022-08-30T01:22:19.706Z,17.51
2022-08-30T01:25:26.246Z,17.32
2022-08-30T01:28:30.787Z,17.68
2022-08-30T01:31:35.255Z,17.65
2022-08-30T01:34:38.111Z,17.53
2022-08-30T01:37:41.164Z,17.53
2022-08-30T01:40:45.639Z,17.68
2022-08-30T01:43:48.802Z,17.83
2022-08-30T01:46:51.539Z,17.97
2022-08-30T01:49:54.379Z,17.74
2022-08-30T01:52:57.219Z,17.93
2022-08-30T01:56:01.395Z,17.87
2022-08-30T01:59:04.933Z,17.85
2022-08-30T02:02:08.033Z,17.75
2022-08-30T02:05:11.129Z,17.59
2022-08-30T02:08:13.943Z,17.42
2022-08-30T02:11:18.286Z,17.48
2022-08-30T02:14:21.298Z,17.51
2022-08-30T02:17:24.688Z,17.63
2022-08-30T02:20:27.642Z,17.66
2022-08-30T02:23:31.278Z,17.50
2022-08-30T02:26:36.731Z,17.38
2022-08-30T02:29:39.652Z,17.57
2022-08-30T02:32:42.725Z,17.49
2022-08-30T02:35:45.570Z,17.56
2022-08-30T02:38:48.892Z,17.57
2022-08-30T02:41:53.095Z,17.67
2022-08-30T02:44:56.895Z,17.51
2022-08-30T02:47:59.770Z,17.95
2022-08-30T02:51:07.181Z,17.76
2022-08-30T02:54:18.885Z,17.27
2022-08-30T02:57:23.072Z,17.83
2022-08-30T03:00:26.252Z,17.98
2022-08-30T03:03:29.216Z,17.84
2022-08-30T03:06:32.290Z,17.92
2022-08-30T03:09:35.421Z,17.86
2022-08-30T03:12:39.552Z,18.00
2022-08-30T03:15:42.572Z,18.01
2022-08-30T03:18:45.383Z,17.62
2022-08-30T03:21:48.162Z,17.63
2022-08-30T03:24:50.980Z,17.75
2022-08-30T03:27:55.172Z,17.85
2022-08-30T03:30:57.974Z,17.87
2022-08-30T03:34:00.767Z,17.69
2022-08-30T03:37:03.560Z,17.73
2022-08-30T03:40:09.164Z,17.83
2022-08-30T03:43:15.000Z,17.99
2022-08-30T03:46:18.022Z,17.77
2022-08-30T03:49:25.771Z,17.92
2022-08-30T03:52:28.620Z,18.04
2022-08-30T03:55:31.531Z,18.31
2022-08-30T03:58:35.768Z,18.55
2022-08-30T04:01:38.678Z,18.66
2022-08-30T04:04:42.115Z,18.43
2022-08-30T04:07:44.954Z,18.81
2022-08-30T04:10:47.838Z,18.67
2022-08-30T04:13:53.440Z,19.00
2022-08-30T04:16:56.279Z,19.24
2022-08-30T04:19:59.032Z,19.34
2022-08-30T04:23:02.277Z,19.55
2022-08-30T04:26:05.334Z,19.74
2022-08-30T04:29:11.786Z,20.14
2022-08-30T04:32:14.770Z,20.10
2022-08-30T04:35:17.643Z,20.24
2022-08-30T04:38:22.609Z,20.30
2022-08-30T04:41:26.260Z,20.50
2022-08-30T04:44:31.634Z,20.75
2022-08-30T04:47:34.514Z,20.89
2022-08-30T04:50:37.313Z,20.91
2022-08-30T04:53:40.191Z,21.13
2022-08-30T04:56:43.825Z,21.45
2022-08-30T04:59:48.052Z,21.72
2022-08-30T05:02:50.982Z,21.75
2022-08-30T05:05:53.982Z,21.70
2022-08-30T05:08:56.885Z,22.03
2022-08-30T05:11:59.731Z,21.94
2022-08-30T05:15:04.006Z,22.24
2022-08-30T05:18:07.692Z,22.29
2022-08-30T05:21:11.553Z,22.42
2022-08-30T05:24:14.363Z,22.35
2022-08-30T05:27:17.200Z,22.54
2022-08-30T05:30:21.718Z,22.49
2022-08-30T05:33:24.583Z,22.48
2022-08-30T05:36:28.806Z,22.56
2022-08-30T05:39:45.159Z,22.76
2022-08-30T05:42:54.422Z,22.98
2022-08-30T05:46:01.920Z,22.89
2022-08-30T05:49:05.866Z,23.27
2022-08-30T05:52:08.678Z,23.25
2022-08-30T05:55:12.201Z,23.35
2022-08-30T05:58:15.075Z,23.38
2022-08-30T06:01:23.641Z,23.58
2022-08-30T06:04:27.099Z,23.51
2022-08-30T06:07:29.982Z,23.50
2022-08-30T06:10:32.808Z,23.77
2022-08-30T06:13:35.635Z,23.88
2022-08-30T06:16:41.067Z,23.94
2022-08-30T06:19:43.896Z,23.96
2022-08-30T06:22:46.703Z,24.01
2022-08-30T06:25:49.587Z,24.23
2022-08-30T06:28:53.479Z,24.45
2022-08-30T06:31:58.093Z,24.54
2022-08-30T06:35:00.942Z,24.59
2022-08-30T06:38:03.763Z,24.82
2022-08-30T06:41:07.246Z,24.98
2022-08-30T06:44:10.080Z,24.99
2022-08-30T06:47:14.307Z,25.29
2022-08-30T06:50:18.814Z,25.41
2022-08-30T06:53:21.709Z,25.69
2022-08-30T06:56:27.400Z,25.78
2022-08-30T06:59:31.658Z,25.95
2022-08-30T07:02:37.536Z,26.20
2022-08-30T07:05:40.418Z,26.17
2022-08-30T07:08:44.221Z,26.24
2022-08-30T07:11:46.992Z,26.41
2022-08-30T07:14:49.846Z,26.60
2022-08-30T07:18:11.796Z,26.54
2022-08-30T07:21:15.409Z,26.65
2022-08-30T07:24:18.250Z,26.57
2022-08-30T07:27:21.206Z,26.64
2022-08-30T07:30:24.192Z,27.07
2022-08-30T07:33:28.373Z,26.80
2022-08-30T07:36:31.206Z,26.61
2022-08-30T07:39:39.181Z,26.92
2022-08-30T07:42:47.538Z,26.94
2022-08-30T07:45:50.341Z,26.87
2022-08-30T07:48:55.369Z,27.25
2022-08-30T07:51:58.505Z,27.35
2022-08-30T07:55:01.909Z,27.45
2022-08-30T07:58:04.770Z,27.49
2022-08-30T08:01:08.445Z,27.56
2022-08-30T08:04:12.678Z,27.77
2022-08-30T08:07:15.675Z,27.79
2022-08-30T08:10:19.059Z,27.74
2022-08-30T08:13:21.935Z,27.86
2022-08-30T08:16:27.416Z,28.02
2022-08-30T08:19:31.767Z,27.97
2022-08-30T08:22:39.291Z,28.42
2022-08-30T08:25:43.577Z,28.25
2022-08-30T08:28:47.292Z,28.49
2022-08-30T08:31:50.689Z,28.48
2022-08-30T08:34:55.045Z,28.34
2022-08-30T08:37:58.070Z,28.79
2022-08-30T08:41:04.542Z,28.98
2022-08-30T08:44:10.058Z,28.80
2022-08-30T08:47:14.808Z,29.24
2022-08-30T08:50:21.511Z,28.48
2022-08-30T08:53:46.402Z,29.75
2022-08-30T08:56:49.883Z,29.66
2022-08-30T08:59:54.584Z,29.98
2022-08-30T09:02:58.870Z,30.10
2022-08-30T09:06:05.135Z,30.41
2022-08-30T09:09:08.042Z,31.76
2022-08-30T09:12:12.375Z,32.74
2022-08-30T09:15:18.199Z,32.19
2022-08-30T09:18:21.263Z,33.30
2022-08-30T09:21:27.746Z,33.81
2022-08-30T09:24:37.695Z,33.74
2022-08-30T09:27:42.283Z,33.66
2022-08-30T09:31:00.113Z,34.63
2022-08-30T09:34:05.869Z,35.20
2022-08-30T09:37:25.000Z,34.30
2022-08-30T09:40:29.537Z,35.03
2022-08-30T09:43:33.399Z,33.91
2022-08-30T09:46:43.826Z,33.15
2022-08-30T09:49:46.659Z,33.99
2022-08-30T09:52:58.527Z,33.73
2022-08-30T09:56:07.006Z,33.92
2022-08-30T09:59:19.771Z,34.13
2022-08-30T10:02:36.893Z,35.90
2022-08-30T10:05:44.753Z,34.00
2022-08-30T10:09:05.547Z,34.03
2022-08-30T10:12:16.186Z,32.89
2022-08-30T10:15:22.704Z,35.33
2022-08-30T10:18:31.846Z,34.65
2022-08-30T10:21:37.250Z,34.23
2022-08-30T10:24:44.027Z,34.23
2022-08-30T10:27:51.247Z,35.60
2022-08-30T10:30:57.289Z,35.12
2022-08-30T10:34:02.929Z,34.08
2022-08-30T10:37:08.292Z,35.68
2022-08-30T10:40:28.523Z,34.22
2022-08-30T10:43:36.120Z,35.08
2022-08-30T10:46:41.632Z,34.04
2022-08-30T10:49:46.085Z,35.53
2022-08-30T10:52:54.126Z,35.86
2022-08-30T10:56:01.894Z,31.38
2022-08-30T10:59:07.165Z,33.54
2022-08-30T11:02:32.336Z,31.89
2022-08-30T11:05:52.643Z,33.08
2022-08-30T11:09:13.114Z,32.66
2022-08-30T11:12:32.411Z,30.93
2022-08-30T11:15:38.616Z,32.30
2022-08-30T11:18:44.870Z,31.07
2022-08-30T11:21:54.484Z,30.42
2022-08-30T11:28:51.382Z,30.38
2022-08-30T11:31:56.121Z,31.28
2022-08-30T11:34:59.972Z,31.89
2022-08-30T11:38:12.051Z,30.14
2022-08-30T11:41:30.967Z,31.51
2022-08-30T11:44:33.911Z,32.71
2022-08-30T11:47:44.227Z,32.76
2022-08-30T11:50:52.666Z,33.07
2022-08-30T11:54:01.904Z,31.62
2022-08-30T11:57:07.319Z,32.49
2022-08-30T12:00:12.122Z,31.57
2022-08-30T12:03:31.500Z,32.47
2022-08-30T12:06:53.048Z,32.63
2022-08-30T12:10:01.275Z,33.30
2022-08-30T12:13:05.165Z,34.26
2022-08-30T12:16:12.182Z,33.59
2022-08-30T12:19:19.314Z,33.63
2022-08-30T12:22:23.322Z,33.78
2022-08-30T12:25:28.378Z,33.84
2022-08-30T12:28:32.252Z,33.15
2022-08-30T12:31:40.811Z,33.56
2022-08-30T12:34:53.327Z,34.32
2022-08-30T12:37:57.755Z,33.77
2022-08-30T12:41:01.632Z,33.92
2022-08-30T12:44:05.792Z,34.43
2022-08-30T12:47:09.758Z,34.12
2022-08-30T12:50:16.738Z,34.76
2022-08-30T12:53:24.503Z,35.00
2022-08-30T12:56:49.823Z,35.68
2022-08-30T12:59:59.330Z,34.88
2022-08-30T13:03:15.556Z,34.65
2022-08-30T13:06:36.874Z,34.41
2022-08-30T13:09:41.077Z,33.72
2022-08-30T13:12:59.624Z,34.12
2022-08-30T13:16:09.658Z,34.64
2022-08-30T13:19:25.974Z,33.39
2022-08-30T13:22:31.304Z,33.77
2022-08-30T13:25:34.960Z,35.76
2022-08-30T13:28:44.925Z,34.71
2022-08-30T13:31:51.675Z,34.65
2022-08-30T13:34:54.535Z,34.33
2022-08-30T13:38:00.373Z,35.06
2022-08-30T13:41:04.276Z,33.87
2022-08-30T13:44:11.436Z,34.15
2022-08-30T13:50:38.513Z,32.96
2022-08-30T13:53:58.202Z,32.66
2022-08-30T13:57:02.176Z,33.11
2022-08-30T14:00:09.754Z,32.42
2022-08-30T14:03:15.747Z,32.98
2022-08-30T14:06:32.859Z,31.90
2022-08-30T14:09:38.466Z,31.37
2022-08-30T14:13:06.969Z,33.14
2022-08-30T14:19:29.878Z,31.95
2022-08-30T14:22:33.324Z,31.00
2022-08-30T14:25:37.839Z,31.96
2022-08-30T14:28:45.089Z,32.52
2022-08-30T14:31:48.789Z,31.30
2022-08-30T14:34:52.112Z,31.49
2022-08-30T14:37:55.439Z,31.03
2022-08-30T14:41:00.982Z,30.75
2022-08-30T14:44:04.452Z,29.74
2022-08-30T14:47:07.730Z,29.84
2022-08-30T14:50:11.209Z,29.61
2022-08-30T14:53:14.046Z,30.14
2022-08-30T14:56:19.956Z,29.70
2022-08-30T14:59:23.503Z,29.52
2022-08-30T15:02:27.176Z,29.40
2022-08-30T15:05:30.577Z,29.55
2022-08-30T15:08:34.103Z,29.66
2022-08-30T15:11:39.060Z,29.40
2022-08-30T15:14:41.881Z,29.15
2022-08-30T15:17:44.899Z,29.23
2022-08-30T15:20:49.504Z,29.40
2022-08-30T15:23:52.612Z,28.72
2022-08-30T15:26:56.762Z,29.28
2022-08-30T15:29:59.632Z,29.18
2022-08-30T15:33:02.659Z,28.88
2022-08-30T15:36:06.594Z,28.76
2022-08-30T15:39:10.465Z,28.73
2022-08-30T15:42:19.398Z,28.71
2022-08-30T15:45:22.550Z,28.48
2022-08-30T15:48:25.681Z,28.41
2022-08-30T15:51:28.640Z,28.06
2022-08-30T15:54:33.806Z,27.97
2022-08-30T15:57:38.037Z,28.28
2022-08-30T16:00:44.850Z,28.37
2022-08-30T16:03:47.904Z,28.01
2022-08-30T16:06:51.388Z,27.69
2022-08-30T16:09:55.447Z,27.50
2022-08-30T16:13:01.784Z,27.47
2022-08-30T16:16:06.955Z,27.12
2022-08-30T16:19:12.372Z,27.25
2022-08-30T16:22:22.017Z,26.91
2022-08-30T16:25:25.743Z,26.91
2022-08-30T16:28:45.789Z,26.49
2022-08-30T16:31:49.243Z,26.28
2022-08-30T16:34:52.114Z,26.31
2022-08-30T16:37:55.888Z,26.56
2022-08-30T16:40:59.884Z,25.75
2022-08-30T16:44:05.254Z,26.33
2022-08-30T16:47:13.448Z,26.14
2022-08-30T16:50:18.622Z,26.27
2022-08-30T16:53:22.490Z,26.16
2022-08-30T16:56:27.557Z,25.80
2022-08-30T16:59:31.954Z,25.94
2022-08-30T17:02:34.896Z,26.01
2022-08-30T17:05:38.208Z,25.81
2022-08-30T17:08:41.010Z,25.94
2022-08-30T17:11:44.131Z,25.76
2022-08-30T17:14:49.287Z,25.79
2022-08-30T17:17:57.823Z,25.61
2022-08-30T17:21:01.045Z,25.60
2022-08-30T17:24:03.908Z,25.25
2022-08-30T17:27:07.268Z,25.35
2022-08-30T17:30:12.815Z,25.41
2022-08-30T17:33:17.834Z,25.45
2022-08-30T17:36:20.787Z,25.09
2022-08-30T17:39:23.872Z,25.21
2022-08-30T17:42:29.709Z,25.24
2022-08-30T17:45:37.515Z,24.99
2022-08-30T17:48:41.617Z,24.91
2022-08-30T17:51:47.865Z,24.67
2022-08-30T17:54:54.463Z,24.75
2022-08-30T17:57:57.344Z,24.61
2022-08-30T18:01:12.290Z,24.74
2022-08-30T18:04:19.664Z,24.48
2022-08-30T18:07:23.210Z,24.42
2022-08-30T18:10:34.359Z,24.44
2022-08-30T18:13:38.348Z,24.33
2022-08-30T18:16:50.234Z,24.38
2022-08-30T18:19:57.699Z,24.54
2022-08-30T18:23:01.058Z,24.30
2022-08-30T18:26:03.975Z,24.25
2022-08-30T18:29:08.456Z,24.32
2022-08-30T18:32:14.697Z,24.37
2022-08-30T18:35:17.840Z,24.61
2022-08-30T18:41:44.396Z,24.25
2022-08-30T18:44:47.558Z,24.36
2022-08-30T18:47:52.351Z,24.47
2022-08-30T18:50:55.840Z,24.74
2022-08-30T18:53:58.728Z,24.30
2022-08-30T18:57:01.573Z,24.54
2022-08-30T19:00:06.305Z,24.84
2022-08-30T19:03:11.184Z,24.93
2022-08-30T19:06:14.007Z,25.00
2022-08-30T19:09:18.019Z,24.61
2022-08-30T19:12:24.396Z,25.10
2022-08-30T19:15:27.672Z,24.64
2022-08-30T19:18:31.916Z,24.84
2022-08-30T19:21:34.752Z,24.77
2022-08-30T19:24:37.661Z,25.10
2022-08-30T19:27:43.606Z,24.81
2022-08-30T19:30:46.423Z,24.87
2022-08-30T19:33:51.266Z,25.06
2022-08-30T19:36:54.799Z,24.63
2022-08-30T19:40:00.672Z,24.59
2022-08-30T19:43:05.263Z,24.24
2022-08-30T19:46:08.554Z,24.12
2022-08-30T19:49:15.216Z,23.95
2022-08-30T19:52:22.743Z,23.68
2022-08-30T19:55:30.117Z,22.97
2022-08-30T19:58:34.405Z,22.89
2022-08-30T20:01:38.970Z,22.92
2022-08-30T20:04:43.170Z,23.29
2022-08-30T20:07:46.143Z,23.22
2022-08-30T20:10:48.988Z,22.95
2022-08-30T20:13:51.845Z,22.85
2022-08-30T20:16:54.700Z,23.23
2022-08-30T20:20:01.606Z,22.60
2022-08-30T20:23:04.811Z,23.07
2022-08-30T20:24:27.445Z,24.18
2022-08-30T20:26:07.842Z,23.25
2022-08-30T20:29:10.651Z,23.07
2022-08-30T20:32:13.802Z,22.95
2022-08-30T20:35:18.627Z,22.82
2022-08-30T20:38:22.073Z,22.75
2022-08-30T20:41:25.153Z,21.56
2022-08-30T20:44:27.976Z,21.25
2022-08-30T20:47:30.836Z,21.04
2022-08-30T20:50:34.984Z,21.05
2022-08-30T20:53:38.113Z,20.46
2022-08-30T20:56:40.978Z,20.27
2022-08-30T20:59:44.149Z,20.38
2022-08-30T21:02:48.446Z,19.78
2022-08-30T21:05:52.938Z,19.96
2022-08-30T21:08:55.782Z,19.99
2022-08-30T21:11:58.590Z,19.81
2022-08-30T21:15:15.361Z,19.91
2022-08-30T21:18:28.536Z,19.55
2022-08-30T21:21:33.225Z,19.39
2022-08-30T21:24:36.099Z,19.47
2022-08-30T21:27:38.935Z,19.64
2022-08-30T21:30:41.835Z,19.35
2022-08-30T21:33:44.739Z,19.49
2022-08-30T21:36:49.197Z,19.42
2022-08-30T21:39:52.096Z,19.47
2022-08-30T21:42:54.921Z,19.36
2022-08-30T21:45:57.742Z,19.19
2022-08-30T21:49:01.995Z,19.27
2022-08-30T21:52:06.393Z,18.90
2022-08-30T21:55:09.612Z,18.93
2022-08-30T21:58:12.461Z,18.91
2022-08-30T22:01:17.501Z,19.69
2022-08-30T22:04:25.663Z,20.09
2022-08-30T22:07:30.557Z,20.07
2022-08-30T22:10:33.558Z,19.98
2022-08-30T22:13:37.460Z,20.21
2022-08-30T22:16:43.012Z,20.21
2022-08-30T22:19:46.770Z,20.19
2022-08-30T22:22:50.950Z,20.49
2022-08-30T22:25:53.764Z,20.14
2022-08-30T22:28:56.684Z,20.09
2022-08-30T22:32:00.084Z,20.02
2022-08-30T22:35:02.990Z,20.03
2022-08-30T22:38:07.163Z,20.04
2022-08-30T22:41:10.901Z,20.00
2022-08-30T22:44:13.711Z,19.90
2022-08-30T22:47:18.038Z,19.86
2022-08-30T22:50:20.928Z,19.70
2022-08-30T22:53:25.095Z,20.00
2022-08-30T22:56:28.244Z,19.71
2022-08-30T22:59:32.285Z,19.76
2022-08-30T23:02:36.587Z,19.71
2022-08-30T23:05:39.567Z,19.87
2022-08-30T23:08:43.843Z,20.00
2022-08-30T23:11:46.649Z,19.92
2022-08-30T23:14:49.504Z,19.70
2022-08-30T23:17:52.893Z,19.77
2022-08-30T23:20:55.717Z,19.62
2022-08-30T23:24:17.582Z,19.71
2022-08-30T23:27:38.208Z,19.69
2022-08-30T23:30:58.898Z,19.52
2022-08-30T23:34:19.471Z,19.27
2022-08-30T23:37:39.917Z,19.15
2022-08-30T23:41:01.507Z,19.07
2022-08-30T23:44:22.425Z,19.26
2022-08-30T23:47:42.386Z,19.31
2022-08-30T23:51:02.927Z,19.41
2022-08-30T23:54:24.121Z,19.21
2022-08-30T23:57:46.315Z,19.14
